SAS929 EKCH-KATL
Flight info
| Callsign | SAS929 |
|---|---|
| Flight time | N/A |
| Altitude | 40000 |
| Route | GOLGA2C GOLGA DCT PEVEB DCT VALDI/M081F380 DCT 64N010W 65N020W 65N030W 64N040W 63N050W/M081F400 DCT MAXAR N968B MUSLO/N0465F400 N968B LOPVI DCT PELSI DCT YVO Q820 DERLO DCT WWSHR DCT APE/N0444F390 DCT HNN/N0449F400 DCT ZIEBR DCT KTRYN ONDRE1 |
| Aircraft | A333/H-VGDW/C |
Departure
| Time | 2026-04-23 05:07 |
|---|---|
| Airport | Copenhagen Kastrup Airport (EKCH) |
Arrival
| Time | N/A |
|---|---|
| Airport | Hartsfield Jackson Atlanta International Airport (KATL) |
| Time | Latitude | Longitude | Altitude | Speed | Heading |
|---|---|---|---|---|---|
| 2026-04-23 04:16 | 55.62432 | 12.65065 | 27 ft | 0 kts | 269° |
| 2026-04-23 04:55 | 55.62432 | 12.65081 | 27 ft | 3 kts | 271° |
| 2026-04-23 04:55 | 55.62431 | 12.65116 | 27 ft | 3 kts | 276° |
| 2026-04-23 04:55 | 55.62429 | 12.65152 | 27 ft | 3 kts | 274° |
| 2026-04-23 04:56 | 55.62428 | 12.65175 | 27 ft | 3 kts | 260° |
| 2026-04-23 04:56 | 55.62433 | 12.65199 | 27 ft | 1 kts | 221° |
| 2026-04-23 04:56 | 55.62438 | 12.65210 | 27 ft | 3 kts | 182° |
| 2026-04-23 04:57 | 55.62446 | 12.65203 | 27 ft | 3 kts | 153° |
| 2026-04-23 04:57 | 55.62463 | 12.65192 | 27 ft | 3 kts | 165° |
| 2026-04-23 04:57 | 55.62476 | 12.65185 | 27 ft | 3 kts | 172° |
| 2026-04-23 04:57 | 55.62496 | 12.65184 | 27 ft | 3 kts | 182° |
| 2026-04-23 04:58 | 55.62506 | 12.65185 | 27 ft | 0 kts | 178° |
| 2026-04-23 05:00 | 55.62505 | 12.65185 | 27 ft | 1 kts | 178° |
| 2026-04-23 05:00 | 55.62479 | 12.65189 | 27 ft | 6 kts | 173° |
| 2026-04-23 05:00 | 55.62402 | 12.65201 | 27 ft | 12 kts | 176° |
| 2026-04-23 05:01 | 55.62316 | 12.65200 | 27 ft | 13 kts | 182° |
| 2026-04-23 05:01 | 55.62227 | 12.65181 | 27 ft | 15 kts | 198° |
| 2026-04-23 05:01 | 55.62130 | 12.65086 | 28 ft | 16 kts | 213° |
| 2026-04-23 05:01 | 55.62035 | 12.64977 | 28 ft | 19 kts | 213° |
| 2026-04-23 05:02 | 55.61886 | 12.64806 | 27 ft | 31 kts | 213° |
| 2026-04-23 05:02 | 55.61690 | 12.64581 | 27 ft | 29 kts | 213° |
| 2026-04-23 05:02 | 55.61526 | 12.64393 | 27 ft | 27 kts | 213° |
| 2026-04-23 05:02 | 55.61368 | 12.64211 | 27 ft | 27 kts | 213° |
| 2026-04-23 05:03 | 55.61211 | 12.64026 | 27 ft | 27 kts | 212° |
| 2026-04-23 05:03 | 55.61056 | 12.63851 | 27 ft | 26 kts | 213° |
| 2026-04-23 05:03 | 55.60907 | 12.63681 | 27 ft | 25 kts | 212° |
| 2026-04-23 05:03 | 55.60760 | 12.63512 | 27 ft | 25 kts | 211° |
| 2026-04-23 05:04 | 55.60638 | 12.63360 | 27 ft | 21 kts | 217° |
| 2026-04-23 05:04 | 55.60532 | 12.63200 | 27 ft | 17 kts | 222° |
| 2026-04-23 05:04 | 55.60436 | 12.63128 | 27 ft | 14 kts | 163° |
| 2026-04-23 05:04 | 55.60404 | 12.63170 | 28 ft | 3 kts | 137° |
| 2026-04-23 05:05 | 55.60384 | 12.63203 | 28 ft | 6 kts | 134° |
| 2026-04-23 05:05 | 55.60352 | 12.63269 | 29 ft | 6 kts | 128° |
| 2026-04-23 05:05 | 55.60339 | 12.63319 | 30 ft | 4 kts | 95° |
| 2026-04-23 05:05 | 55.60361 | 12.63377 | 30 ft | 6 kts | 46° |
| 2026-04-23 05:06 | 55.60375 | 12.63399 | 29 ft | 0 kts | 43° |
| 2026-04-23 05:06 | 55.60377 | 12.63403 | 29 ft | 0 kts | 43° |
| 2026-04-23 05:06 | 55.60379 | 12.63406 | 29 ft | 1 kts | 42° |
| 2026-04-23 05:06 | 55.60453 | 12.63523 | 28 ft | 38 kts | 41° |
| 2026-04-23 05:07 | 55.60800 | 12.64059 | 30 ft | 93 kts | 41° |
| 2026-04-23 05:07 | 55.61418 | 12.65017 | 28 ft | 142 kts | 41° |
| 2026-04-23 05:07 | 55.62244 | 12.66315 | 300 ft | 164 kts | 38° |
| 2026-04-23 05:07 | 55.63066 | 12.67627 | 1068 ft | 155 kts | 38° |
| 2026-04-23 05:08 | 55.63844 | 12.68931 | 1677 ft | 158 kts | 39° |
| 2026-04-23 05:08 | 55.64705 | 12.70333 | 1930 ft | 178 kts | 36° |
| 2026-04-23 05:08 | 55.65875 | 12.71359 | 2181 ft | 198 kts | 10° |
| 2026-04-23 05:08 | 55.67307 | 12.71100 | 2418 ft | 222 kts | 341° |
| 2026-04-23 05:09 | 55.68823 | 12.70265 | 2886 ft | 232 kts | 353° |
| 2026-04-23 05:09 | 55.70425 | 12.69953 | 3631 ft | 232 kts | 354° |
| 2026-04-23 05:09 | 55.72035 | 12.69728 | 4364 ft | 233 kts | 355° |
| 2026-04-23 05:09 | 55.73637 | 12.69544 | 5078 ft | 235 kts | 355° |
| 2026-04-23 05:10 | 55.75281 | 12.69366 | 5802 ft | 237 kts | 355° |
| 2026-04-23 05:10 | 55.76947 | 12.69190 | 6508 ft | 241 kts | 355° |
| 2026-04-23 05:10 | 55.78630 | 12.69013 | 7177 ft | 245 kts | 355° |
| 2026-04-23 05:10 | 55.80337 | 12.68687 | 7864 ft | 248 kts | 347° |
| 2026-04-23 05:11 | 55.81931 | 12.67515 | 8548 ft | 252 kts | 327° |
| 2026-04-23 05:11 | 55.83170 | 12.65262 | 9239 ft | 261 kts | 306° |
| 2026-04-23 05:11 | 55.83977 | 12.62321 | 9951 ft | 267 kts | 297° |
| 2026-04-23 05:11 | 55.84663 | 12.59205 | 10507 ft | 276 kts | 295° |
| 2026-04-23 05:12 | 55.85364 | 12.55957 | 10779 ft | 293 kts | 295° |
| 2026-04-23 05:12 | 55.86119 | 12.52487 | 11037 ft | 310 kts | 295° |
| 2026-04-23 05:12 | 55.86925 | 12.48812 | 11270 ft | 326 kts | 295° |
| 2026-04-23 05:12 | 55.87851 | 12.45050 | 11625 ft | 336 kts | 302° |
| 2026-04-23 05:13 | 55.89202 | 12.41657 | 12168 ft | 337 kts | 314° |
| 2026-04-23 05:13 | 55.90853 | 12.38661 | 12796 ft | 340 kts | 318° |
| 2026-04-23 05:13 | 55.92590 | 12.35772 | 13433 ft | 343 kts | 319° |
| 2026-04-23 05:14 | 55.96164 | 12.29986 | 14614 ft | 350 kts | 320° |
| 2026-04-23 05:14 | 55.97987 | 12.27051 | 15121 ft | 355 kts | 320° |
| 2026-04-23 05:14 | 55.99831 | 12.24081 | 15654 ft | 358 kts | 320° |
| 2026-04-23 05:14 | 56.01694 | 12.21079 | 16208 ft | 361 kts | 320° |
| 2026-04-23 05:15 | 56.03576 | 12.18043 | 16762 ft | 365 kts | 320° |
| 2026-04-23 05:15 | 56.05439 | 12.15033 | 17309 ft | 368 kts | 320° |
| 2026-04-23 05:15 | 56.07345 | 12.11951 | 17823 ft | 371 kts | 321° |
| 2026-04-23 05:15 | 56.09263 | 12.08844 | 18372 ft | 374 kts | 321° |
| 2026-04-23 05:16 | 56.11202 | 12.05700 | 18834 ft | 377 kts | 321° |
| 2026-04-23 05:16 | 56.13158 | 12.02524 | 19213 ft | 381 kts | 321° |
| 2026-04-23 05:16 | 56.15140 | 11.99301 | 19541 ft | 388 kts | 320° |
| 2026-04-23 05:16 | 56.17149 | 11.96030 | 19954 ft | 391 kts | 320° |
| 2026-04-23 05:17 | 56.19172 | 11.92728 | 20395 ft | 394 kts | 320° |
| 2026-04-23 05:17 | 56.21209 | 11.89399 | 20821 ft | 397 kts | 320° |
| 2026-04-23 05:17 | 56.23259 | 11.86046 | 21225 ft | 400 kts | 320° |
| 2026-04-23 05:17 | 56.25320 | 11.82668 | 21628 ft | 404 kts | 320° |
| 2026-04-23 05:18 | 56.27404 | 11.79248 | 22025 ft | 407 kts | 320° |
| 2026-04-23 05:18 | 56.29503 | 11.75797 | 22450 ft | 409 kts | 320° |
| 2026-04-23 05:18 | 56.31604 | 11.72337 | 22884 ft | 411 kts | 320° |
| 2026-04-23 05:18 | 56.33673 | 11.68722 | 23249 ft | 416 kts | 317° |
| 2026-04-23 05:19 | 56.35658 | 11.64906 | 23616 ft | 420 kts | 315° |
| 2026-04-23 05:19 | 56.37590 | 11.61006 | 23962 ft | 423 kts | 314° |
| 2026-04-23 05:19 | 56.39531 | 11.56990 | 24288 ft | 426 kts | 314° |
| 2026-04-23 05:19 | 56.41480 | 11.52924 | 24533 ft | 430 kts | 313° |
| 2026-04-23 05:20 | 56.43449 | 11.48818 | 24811 ft | 433 kts | 313° |
| 2026-04-23 05:20 | 56.45433 | 11.44688 | 25159 ft | 435 kts | 314° |
| 2026-04-23 05:20 | 56.47424 | 11.40553 | 25503 ft | 437 kts | 314° |
| 2026-04-23 05:20 | 56.49427 | 11.36401 | 25837 ft | 438 kts | 314° |
| 2026-04-23 05:21 | 56.50758 | 11.33642 | 26051 ft | 440 kts | 314° |
| 2026-04-23 05:21 | 56.53435 | 11.28089 | 26476 ft | 442 kts | 314° |
| 2026-04-23 05:21 | 56.55459 | 11.23883 | 26804 ft | 444 kts | 314° |